sensor_id;sensor_type;location;lat;lon;timestamp;P1;durP1;ratioP1;P2;durP2;ratioP2
70707;SDS011;58277;47.316;18.908;2022-11-20T00:02:00;26.63;;;7.45;;
70707;SDS011;58277;47.316;18.908;2022-11-20T00:04:23;22.08;;;7.20;;
70707;SDS011;58277;47.316;18.908;2022-11-20T00:06:46;21.40;;;7.47;;
70707;SDS011;58277;47.316;18.908;2022-11-20T00:09:09;21.75;;;7.07;;
70707;SDS011;58277;47.316;18.908;2022-11-20T00:11:32;21.30;;;6.80;;
70707;SDS011;58277;47.316;18.908;2022-11-20T00:13:55;23.25;;;7.55;;
70707;SDS011;58277;47.316;18.908;2022-11-20T00:16:20;23.75;;;7.95;;
70707;SDS011;58277;47.316;18.908;2022-11-20T00:18:44;22.20;;;7.37;;
70707;SDS011;58277;47.316;18.908;2022-11-20T00:21:10;22.15;;;7.40;;
70707;SDS011;58277;47.316;18.908;2022-11-20T00:23:35;23.25;;;7.15;;
70707;SDS011;58277;47.316;18.908;2022-11-20T00:26:01;23.33;;;8.02;;
70707;SDS011;58277;47.316;18.908;2022-11-20T00:28:27;21.13;;;6.95;;
70707;SDS011;58277;47.316;18.908;2022-11-20T00:30:50;23.20;;;6.37;;
70707;SDS011;58277;47.316;18.908;2022-11-20T00:33:13;20.20;;;7.32;;
70707;SDS011;58277;47.316;18.908;2022-11-20T00:35:35;24.02;;;7.57;;
70707;SDS011;58277;47.316;18.908;2022-11-20T00:37:58;20.05;;;7.32;;
70707;SDS011;58277;47.316;18.908;2022-11-20T00:40:20;19.40;;;7.30;;
70707;SDS011;58277;47.316;18.908;2022-11-20T00:42:43;24.30;;;7.30;;
70707;SDS011;58277;47.316;18.908;2022-11-20T00:45:06;21.33;;;6.95;;
70707;SDS011;58277;47.316;18.908;2022-11-20T00:47:29;25.75;;;7.90;;
70707;SDS011;58277;47.316;18.908;2022-11-20T00:49:51;22.88;;;7.55;;
70707;SDS011;58277;47.316;18.908;2022-11-20T00:52:14;21.83;;;7.65;;
70707;SDS011;58277;47.316;18.908;2022-11-20T00:54:37;21.73;;;6.63;;
70707;SDS011;58277;47.316;18.908;2022-11-20T00:56:59;20.88;;;7.15;;
70707;SDS011;58277;47.316;18.908;2022-11-20T00:59:22;22.67;;;7.30;;
70707;SDS011;58277;47.316;18.908;2022-11-20T01:01:45;23.80;;;7.32;;
70707;SDS011;58277;47.316;18.908;2022-11-20T01:04:08;22.25;;;7.57;;
70707;SDS011;58277;47.316;18.908;2022-11-20T01:06:32;21.83;;;7.00;;
70707;SDS011;58277;47.316;18.908;2022-11-20T01:09:00;24.23;;;7.65;;
70707;SDS011;58277;47.316;18.908;2022-11-20T01:11:35;19.13;;;6.63;;
70707;SDS011;58277;47.316;18.908;2022-11-20T01:14:00;25.05;;;7.93;;
70707;SDS011;58277;47.316;18.908;2022-11-20T01:16:25;21.95;;;7.15;;
70707;SDS011;58277;47.316;18.908;2022-11-20T01:18:57;24.30;;;7.17;;
70707;SDS011;58277;47.316;18.908;2022-11-20T01:21:22;19.15;;;6.90;;
70707;SDS011;58277;47.316;18.908;2022-11-20T01:23:47;21.50;;;7.32;;
70707;SDS011;58277;47.316;18.908;2022-11-20T01:26:11;22.73;;;7.38;;
70707;SDS011;58277;47.316;18.908;2022-11-20T01:28:36;20.73;;;7.22;;
70707;SDS011;58277;47.316;18.908;2022-11-20T01:30:59;23.17;;;7.70;;
70707;SDS011;58277;47.316;18.908;2022-11-20T01:33:22;18.63;;;6.32;;
70707;SDS011;58277;47.316;18.908;2022-11-20T01:35:47;20.27;;;6.97;;
70707;SDS011;58277;47.316;18.908;2022-11-20T01:38:10;21.88;;;7.30;;
70707;SDS011;58277;47.316;18.908;2022-11-20T01:40:32;21.20;;;7.65;;
70707;SDS011;58277;47.316;18.908;2022-11-20T01:43:01;24.50;;;7.90;;
70707;SDS011;58277;47.316;18.908;2022-11-20T01:48:42;20.85;;;7.13;;
70707;SDS011;58277;47.316;18.908;2022-11-20T01:51:15;22.80;;;6.85;;
70707;SDS011;58277;47.316;18.908;2022-11-20T01:53:42;23.50;;;7.53;;
70707;SDS011;58277;47.316;18.908;2022-11-20T01:56:08;23.67;;;8.03;;
70707;SDS011;58277;47.316;18.908;2022-11-20T01:58:34;25.15;;;8.13;;
70707;SDS011;58277;47.316;18.908;2022-11-20T02:01:00;24.52;;;8.02;;
70707;SDS011;58277;47.316;18.908;2022-11-20T02:03:23;23.65;;;7.80;;
70707;SDS011;58277;47.316;18.908;2022-11-20T02:08:19;23.37;;;7.27;;
70707;SDS011;58277;47.316;18.908;2022-11-20T02:10:43;26.83;;;8.18;;
70707;SDS011;58277;47.316;18.908;2022-11-20T02:13:06;24.23;;;8.40;;
70707;SDS011;58277;47.316;18.908;2022-11-20T02:15:48;26.92;;;9.43;;
70707;SDS011;58277;47.316;18.908;2022-11-20T02:18:11;23.25;;;8.20;;
70707;SDS011;58277;47.316;18.908;2022-11-20T02:20:37;28.23;;;8.30;;
70707;SDS011;58277;47.316;18.908;2022-11-20T02:23:12;24.65;;;8.27;;
70707;SDS011;58277;47.316;18.908;2022-11-20T02:25:39;25.65;;;8.60;;
70707;SDS011;58277;47.316;18.908;2022-11-20T02:28:04;25.05;;;8.80;;
70707;SDS011;58277;47.316;18.908;2022-11-20T02:30:27;24.50;;;8.20;;
70707;SDS011;58277;47.316;18.908;2022-11-20T02:32:50;29.80;;;9.13;;
70707;SDS011;58277;47.316;18.908;2022-11-20T02:37:43;27.45;;;9.00;;
70707;SDS011;58277;47.316;18.908;2022-11-20T02:40:09;28.45;;;9.40;;
70707;SDS011;58277;47.316;18.908;2022-11-20T02:42:32;27.90;;;8.98;;
70707;SDS011;58277;47.316;18.908;2022-11-20T02:44:54;26.37;;;8.47;;
70707;SDS011;58277;47.316;18.908;2022-11-20T02:47:17;30.15;;;9.15;;
70707;SDS011;58277;47.316;18.908;2022-11-20T02:49:40;33.13;;;9.68;;
70707;SDS011;58277;47.316;18.908;2022-11-20T02:52:03;28.42;;;9.55;;
70707;SDS011;58277;47.316;18.908;2022-11-20T02:54:25;27.92;;;9.15;;
70707;SDS011;58277;47.316;18.908;2022-11-20T02:56:48;30.83;;;9.97;;
70707;SDS011;58277;47.316;18.908;2022-11-20T02:59:10;29.80;;;9.93;;
70707;SDS011;58277;47.316;18.908;2022-11-20T03:01:33;30.65;;;9.70;;
70707;SDS011;58277;47.316;18.908;2022-11-20T03:03:57;31.05;;;9.93;;
70707;SDS011;58277;47.316;18.908;2022-11-20T03:06:19;29.85;;;8.90;;
70707;SDS011;58277;47.316;18.908;2022-11-20T03:08:42;31.00;;;9.67;;
70707;SDS011;58277;47.316;18.908;2022-11-20T03:11:05;36.25;;;10.52;;
70707;SDS011;58277;47.316;18.908;2022-11-20T03:13:29;36.63;;;10.32;;
70707;SDS011;58277;47.316;18.908;2022-11-20T03:15:52;37.08;;;11.05;;
70707;SDS011;58277;47.316;18.908;2022-11-20T03:18:15;34.88;;;11.05;;
70707;SDS011;58277;47.316;18.908;2022-11-20T03:20:38;37.70;;;11.57;;
70707;SDS011;58277;47.316;18.908;2022-11-20T03:23:00;35.85;;;10.82;;
70707;SDS011;58277;47.316;18.908;2022-11-20T03:25:23;32.75;;;10.10;;
70707;SDS011;58277;47.316;18.908;2022-11-20T03:27:46;37.30;;;10.40;;
70707;SDS011;58277;47.316;18.908;2022-11-20T03:30:08;30.67;;;9.93;;
70707;SDS011;58277;47.316;18.908;2022-11-20T03:32:31;32.00;;;10.13;;
70707;SDS011;58277;47.316;18.908;2022-11-20T03:34:54;35.03;;;10.80;;
70707;SDS011;58277;47.316;18.908;2022-11-20T03:37:17;34.88;;;11.52;;
70707;SDS011;58277;47.316;18.908;2022-11-20T03:39:39;37.72;;;11.23;;
70707;SDS011;58277;47.316;18.908;2022-11-20T03:42:02;33.22;;;10.65;;
70707;SDS011;58277;47.316;18.908;2022-11-20T03:44:24;37.27;;;11.27;;
70707;SDS011;58277;47.316;18.908;2022-11-20T03:46:47;34.37;;;10.43;;
70707;SDS011;58277;47.316;18.908;2022-11-20T03:49:10;33.83;;;11.07;;
70707;SDS011;58277;47.316;18.908;2022-11-20T03:51:34;36.38;;;11.73;;
70707;SDS011;58277;47.316;18.908;2022-11-20T03:53:59;37.25;;;10.93;;
70707;SDS011;58277;47.316;18.908;2022-11-20T03:56:25;34.97;;;11.20;;
70707;SDS011;58277;47.316;18.908;2022-11-20T03:58:50;38.30;;;11.55;;
70707;SDS011;58277;47.316;18.908;2022-11-20T04:01:16;33.75;;;11.13;;
70707;SDS011;58277;47.316;18.908;2022-11-20T04:03:44;36.75;;;11.43;;
70707;SDS011;58277;47.316;18.908;2022-11-20T04:08:34;36.50;;;10.27;;
70707;SDS011;58277;47.316;18.908;2022-11-20T04:11:07;36.25;;;10.50;;
70707;SDS011;58277;47.316;18.908;2022-11-20T04:13:34;33.83;;;10.55;;
70707;SDS011;58277;47.316;18.908;2022-11-20T04:15:57;32.92;;;10.18;;
70707;SDS011;58277;47.316;18.908;2022-11-20T04:18:20;33.03;;;10.82;;
70707;SDS011;58277;47.316;18.908;2022-11-20T04:20:42;34.70;;;11.27;;
70707;SDS011;58277;47.316;18.908;2022-11-20T04:23:05;33.28;;;10.52;;
70707;SDS011;58277;47.316;18.908;2022-11-20T04:25:27;34.05;;;10.73;;
70707;SDS011;58277;47.316;18.908;2022-11-20T04:27:50;36.53;;;10.75;;
70707;SDS011;58277;47.316;18.908;2022-11-20T04:30:13;34.60;;;11.10;;
70707;SDS011;58277;47.316;18.908;2022-11-20T04:32:36;32.03;;;10.33;;
70707;SDS011;58277;47.316;18.908;2022-11-20T04:34:59;33.05;;;10.52;;
70707;SDS011;58277;47.316;18.908;2022-11-20T04:37:22;31.58;;;10.23;;
70707;SDS011;58277;47.316;18.908;2022-11-20T04:39:44;32.55;;;9.88;;
70707;SDS011;58277;47.316;18.908;2022-11-20T04:42:08;31.45;;;10.10;;
70707;SDS011;58277;47.316;18.908;2022-11-20T04:44:50;29.57;;;9.30;;
70707;SDS011;58277;47.316;18.908;2022-11-20T04:47:12;30.33;;;9.25;;
70707;SDS011;58277;47.316;18.908;2022-11-20T04:49:35;27.60;;;9.25;;
70707;SDS011;58277;47.316;18.908;2022-11-20T04:51:57;27.33;;;8.75;;
70707;SDS011;58277;47.316;18.908;2022-11-20T04:54:20;25.83;;;8.95;;
70707;SDS011;58277;47.316;18.908;2022-11-20T04:56:43;24.77;;;8.73;;
70707;SDS011;58277;47.316;18.908;2022-11-20T04:59:06;26.50;;;8.85;;
70707;SDS011;58277;47.316;18.908;2022-11-20T05:01:28;32.92;;;10.88;;
70707;SDS011;58277;47.316;18.908;2022-11-20T05:03:51;35.30;;;11.32;;
70707;SDS011;58277;47.316;18.908;2022-11-20T05:06:16;34.05;;;11.55;;
70707;SDS011;58277;47.316;18.908;2022-11-20T05:08:41;32.27;;;10.17;;
70707;SDS011;58277;47.316;18.908;2022-11-20T05:11:05;33.22;;;11.15;;
70707;SDS011;58277;47.316;18.908;2022-11-20T05:13:29;34.15;;;11.73;;
70707;SDS011;58277;47.316;18.908;2022-11-20T05:15:52;34.53;;;12.63;;
70707;SDS011;58277;47.316;18.908;2022-11-20T05:18:15;33.83;;;11.05;;
70707;SDS011;58277;47.316;18.908;2022-11-20T05:20:37;34.53;;;12.40;;
70707;SDS011;58277;47.316;18.908;2022-11-20T05:23:00;34.90;;;12.05;;
70707;SDS011;58277;47.316;18.908;2022-11-20T05:25:22;28.48;;;10.18;;
70707;SDS011;58277;47.316;18.908;2022-11-20T05:27:45;30.52;;;10.10;;
70707;SDS011;58277;47.316;18.908;2022-11-20T05:30:08;31.10;;;10.60;;
70707;SDS011;58277;47.316;18.908;2022-11-20T05:32:31;28.97;;;9.23;;
70707;SDS011;58277;47.316;18.908;2022-11-20T05:34:54;29.48;;;9.20;;
70707;SDS011;58277;47.316;18.908;2022-11-20T05:37:18;25.88;;;8.55;;
70707;SDS011;58277;47.316;18.908;2022-11-20T05:39:40;25.27;;;8.60;;
70707;SDS011;58277;47.316;18.908;2022-11-20T05:42:03;22.75;;;8.38;;
70707;SDS011;58277;47.316;18.908;2022-11-20T05:44:44;24.73;;;8.57;;
70707;SDS011;58277;47.316;18.908;2022-11-20T05:47:07;24.70;;;8.63;;
70707;SDS011;58277;47.316;18.908;2022-11-20T05:49:29;24.95;;;8.63;;
70707;SDS011;58277;47.316;18.908;2022-11-20T05:51:52;26.20;;;9.23;;
70707;SDS011;58277;47.316;18.908;2022-11-20T05:54:15;27.63;;;9.27;;
70707;SDS011;58277;47.316;18.908;2022-11-20T05:56:37;26.83;;;8.20;;
70707;SDS011;58277;47.316;18.908;2022-11-20T05:59:00;27.33;;;9.27;;
70707;SDS011;58277;47.316;18.908;2022-11-20T06:01:23;24.23;;;8.48;;
70707;SDS011;58277;47.316;18.908;2022-11-20T06:03:47;24.33;;;8.35;;
70707;SDS011;58277;47.316;18.908;2022-11-20T06:06:13;23.23;;;8.15;;
70707;SDS011;58277;47.316;18.908;2022-11-20T06:08:37;25.20;;;8.40;;
70707;SDS011;58277;47.316;18.908;2022-11-20T06:11:06;27.23;;;8.80;;
70707;SDS011;58277;47.316;18.908;2022-11-20T06:13:30;27.75;;;9.05;;
70707;SDS011;58277;47.316;18.908;2022-11-20T06:15:53;28.13;;;9.65;;
70707;SDS011;58277;47.316;18.908;2022-11-20T06:18:16;25.63;;;8.40;;
70707;SDS011;58277;47.316;18.908;2022-11-20T06:20:39;26.43;;;8.93;;
70707;SDS011;58277;47.316;18.908;2022-11-20T06:23:03;23.70;;;8.15;;
70707;SDS011;58277;47.316;18.908;2022-11-20T06:25:26;23.95;;;8.35;;
70707;SDS011;58277;47.316;18.908;2022-11-20T06:27:48;24.08;;;8.45;;
70707;SDS011;58277;47.316;18.908;2022-11-20T06:30:11;23.00;;;8.13;;
70707;SDS011;58277;47.316;18.908;2022-11-20T06:32:34;25.80;;;8.83;;
70707;SDS011;58277;47.316;18.908;2022-11-20T06:34:57;24.70;;;8.82;;
70707;SDS011;58277;47.316;18.908;2022-11-20T06:37:20;29.30;;;9.07;;
70707;SDS011;58277;47.316;18.908;2022-11-20T06:39:42;24.17;;;8.50;;
70707;SDS011;58277;47.316;18.908;2022-11-20T06:42:05;25.48;;;8.43;;
70707;SDS011;58277;47.316;18.908;2022-11-20T06:44:28;25.40;;;8.37;;
70707;SDS011;58277;47.316;18.908;2022-11-20T06:46:50;25.08;;;8.68;;
70707;SDS011;58277;47.316;18.908;2022-11-20T06:49:13;23.65;;;7.93;;
70707;SDS011;58277;47.316;18.908;2022-11-20T06:51:35;25.15;;;8.75;;
70707;SDS011;58277;47.316;18.908;2022-11-20T06:53:58;24.85;;;8.45;;
70707;SDS011;58277;47.316;18.908;2022-11-20T06:56:21;23.53;;;8.03;;
70707;SDS011;58277;47.316;18.908;2022-11-20T06:58:44;26.13;;;8.65;;
70707;SDS011;58277;47.316;18.908;2022-11-20T07:01:09;25.70;;;8.43;;
70707;SDS011;58277;47.316;18.908;2022-11-20T07:03:34;23.05;;;7.75;;
70707;SDS011;58277;47.316;18.908;2022-11-20T07:05:58;24.95;;;8.88;;
70707;SDS011;58277;47.316;18.908;2022-11-20T07:08:22;26.73;;;8.50;;
70707;SDS011;58277;47.316;18.908;2022-11-20T07:10:45;25.42;;;8.88;;
70707;SDS011;58277;47.316;18.908;2022-11-20T07:13:08;24.77;;;8.68;;
70707;SDS011;58277;47.316;18.908;2022-11-20T07:15:30;26.17;;;9.15;;
70707;SDS011;58277;47.316;18.908;2022-11-20T07:17:53;23.98;;;8.48;;
70707;SDS011;58277;47.316;18.908;2022-11-20T07:20:16;25.43;;;8.63;;
70707;SDS011;58277;47.316;18.908;2022-11-20T07:22:39;25.25;;;8.48;;
70707;SDS011;58277;47.316;18.908;2022-11-20T07:25:01;24.42;;;8.75;;
70707;SDS011;58277;47.316;18.908;2022-11-20T07:27:24;24.05;;;8.25;;
70707;SDS011;58277;47.316;18.908;2022-11-20T07:29:47;22.98;;;8.25;;
70707;SDS011;58277;47.316;18.908;2022-11-20T07:32:09;23.63;;;8.40;;
70707;SDS011;58277;47.316;18.908;2022-11-20T07:34:32;23.63;;;8.73;;
70707;SDS011;58277;47.316;18.908;2022-11-20T07:36:55;27.05;;;8.27;;
70707;SDS011;58277;47.316;18.908;2022-11-20T07:39:17;25.60;;;8.80;;
70707;SDS011;58277;47.316;18.908;2022-11-20T07:41:41;28.30;;;9.20;;
70707;SDS011;58277;47.316;18.908;2022-11-20T07:44:03;27.10;;;9.27;;
70707;SDS011;58277;47.316;18.908;2022-11-20T07:46:26;24.10;;;8.68;;
70707;SDS011;58277;47.316;18.908;2022-11-20T07:48:49;25.45;;;8.77;;
70707;SDS011;58277;47.316;18.908;2022-11-20T07:51:12;23.55;;;8.68;;
70707;SDS011;58277;47.316;18.908;2022-11-20T07:53:35;26.95;;;9.25;;
70707;SDS011;58277;47.316;18.908;2022-11-20T07:56:01;24.73;;;8.23;;
70707;SDS011;58277;47.316;18.908;2022-11-20T07:58:26;26.10;;;8.73;;
70707;SDS011;58277;47.316;18.908;2022-11-20T08:00:50;24.27;;;8.40;;
70707;SDS011;58277;47.316;18.908;2022-11-20T08:03:13;24.55;;;8.80;;
70707;SDS011;58277;47.316;18.908;2022-11-20T08:05:40;26.65;;;9.52;;
70707;SDS011;58277;47.316;18.908;2022-11-20T08:08:02;24.53;;;8.50;;
70707;SDS011;58277;47.316;18.908;2022-11-20T08:10:25;23.35;;;8.40;;
70707;SDS011;58277;47.316;18.908;2022-11-20T08:12:51;25.45;;;9.52;;
70707;SDS011;58277;47.316;18.908;2022-11-20T08:15:33;26.52;;;9.27;;
70707;SDS011;58277;47.316;18.908;2022-11-20T08:18:09;27.55;;;9.32;;
70707;SDS011;58277;47.316;18.908;2022-11-20T08:20:53;25.47;;;9.63;;
70707;SDS011;58277;47.316;18.908;2022-11-20T08:23:16;26.98;;;10.25;;
70707;SDS011;58277;47.316;18.908;2022-11-20T08:25:38;30.58;;;10.20;;
70707;SDS011;58277;47.316;18.908;2022-11-20T08:28:02;29.52;;;9.93;;
70707;SDS011;58277;47.316;18.908;2022-11-20T08:30:42;26.45;;;9.75;;
70707;SDS011;58277;47.316;18.908;2022-11-20T08:33:05;28.10;;;9.97;;
70707;SDS011;58277;47.316;18.908;2022-11-20T08:35:33;27.05;;;10.35;;
70707;SDS011;58277;47.316;18.908;2022-11-20T08:38:00;29.60;;;11.07;;
70707;SDS011;58277;47.316;18.908;2022-11-20T08:40:23;27.00;;;10.25;;
70707;SDS011;58277;47.316;18.908;2022-11-20T08:42:47;32.15;;;13.15;;
70707;SDS011;58277;47.316;18.908;2022-11-20T08:45:10;34.33;;;13.63;;
70707;SDS011;58277;47.316;18.908;2022-11-20T08:47:33;30.30;;;12.32;;
70707;SDS011;58277;47.316;18.908;2022-11-20T08:49:55;29.30;;;11.93;;
70707;SDS011;58277;47.316;18.908;2022-11-20T08:52:18;29.02;;;11.15;;
70707;SDS011;58277;47.316;18.908;2022-11-20T08:54:41;28.30;;;10.65;;
70707;SDS011;58277;47.316;18.908;2022-11-20T08:57:03;27.93;;;10.40;;
70707;SDS011;58277;47.316;18.908;2022-11-20T08:59:26;28.30;;;11.65;;
70707;SDS011;58277;47.316;18.908;2022-11-20T09:02:09;27.45;;;10.18;;
70707;SDS011;58277;47.316;18.908;2022-11-20T09:04:31;26.75;;;10.00;;
70707;SDS011;58277;47.316;18.908;2022-11-20T09:06:57;27.25;;;10.15;;
70707;SDS011;58277;47.316;18.908;2022-11-20T09:09:22;26.53;;;9.57;;
70707;SDS011;58277;47.316;18.908;2022-11-20T09:11:45;26.60;;;9.40;;
70707;SDS011;58277;47.316;18.908;2022-11-20T09:14:08;24.38;;;9.10;;
70707;SDS011;58277;47.316;18.908;2022-11-20T09:16:31;21.42;;;8.30;;
70707;SDS011;58277;47.316;18.908;2022-11-20T09:18:53;24.95;;;9.30;;
70707;SDS011;58277;47.316;18.908;2022-11-20T09:21:36;24.60;;;8.80;;
70707;SDS011;58277;47.316;18.908;2022-11-20T09:23:59;24.45;;;8.65;;
70707;SDS011;58277;47.316;18.908;2022-11-20T09:26:22;24.33;;;8.77;;
70707;SDS011;58277;47.316;18.908;2022-11-20T09:28:45;26.08;;;9.38;;
70707;SDS011;58277;47.316;18.908;2022-11-20T09:31:08;25.67;;;9.07;;
70707;SDS011;58277;47.316;18.908;2022-11-20T09:33:37;26.83;;;9.57;;
70707;SDS011;58277;47.316;18.908;2022-11-20T09:36:00;25.98;;;9.00;;
70707;SDS011;58277;47.316;18.908;2022-11-20T09:38:23;25.23;;;9.80;;
70707;SDS011;58277;47.316;18.908;2022-11-20T09:40:51;26.13;;;9.25;;
70707;SDS011;58277;47.316;18.908;2022-11-20T09:56:49;27.75;;;10.48;;
70707;SDS011;58277;47.316;18.908;2022-11-20T09:59:59;30.35;;;10.82;;
70707;SDS011;58277;47.316;18.908;2022-11-20T10:02:13;27.27;;;9.77;;
70707;SDS011;58277;47.316;18.908;2022-11-20T10:04:37;29.42;;;10.57;;
70707;SDS011;58277;47.316;18.908;2022-11-20T10:07:07;26.48;;;9.52;;
70707;SDS011;58277;47.316;18.908;2022-11-20T10:09:55;25.65;;;9.65;;
70707;SDS011;58277;47.316;18.908;2022-11-20T10:18:08;28.38;;;10.55;;
70707;SDS011;58277;47.316;18.908;2022-11-20T10:23:52;28.23;;;10.00;;
70707;SDS011;58277;47.316;18.908;2022-11-20T10:29:18;30.38;;;10.43;;
70707;SDS011;58277;47.316;18.908;2022-11-20T10:31:47;30.08;;;11.20;;
70707;SDS011;58277;47.316;18.908;2022-11-20T10:36:57;32.30;;;12.25;;
70707;SDS011;58277;47.316;18.908;2022-11-20T10:39:28;30.27;;;11.07;;
70707;SDS011;58277;47.316;18.908;2022-11-20T10:41:53;29.60;;;10.20;;
70707;SDS011;58277;47.316;18.908;2022-11-20T10:44:17;30.98;;;10.60;;
70707;SDS011;58277;47.316;18.908;2022-11-20T10:47:01;30.80;;;10.98;;
70707;SDS011;58277;47.316;18.908;2022-11-20T10:49:27;30.67;;;11.85;;
70707;SDS011;58277;47.316;18.908;2022-11-20T10:51:57;31.23;;;11.60;;
70707;SDS011;58277;47.316;18.908;2022-11-20T10:54:39;28.83;;;10.52;;
70707;SDS011;58277;47.316;18.908;2022-11-20T10:57:23;28.45;;;10.73;;
70707;SDS011;58277;47.316;18.908;2022-11-20T11:00:07;29.20;;;10.88;;
70707;SDS011;58277;47.316;18.908;2022-11-20T11:02:46;28.40;;;10.20;;
70707;SDS011;58277;47.316;18.908;2022-11-20T11:05:58;27.73;;;10.27;;
70707;SDS011;58277;47.316;18.908;2022-11-20T11:08:07;28.25;;;10.68;;
70707;SDS011;58277;47.316;18.908;2022-11-20T11:10:44;27.48;;;10.65;;
70707;SDS011;58277;47.316;18.908;2022-11-20T11:13:22;32.08;;;12.20;;
70707;SDS011;58277;47.316;18.908;2022-11-20T11:15:47;31.83;;;11.98;;
70707;SDS011;58277;47.316;18.908;2022-11-20T11:18:10;28.63;;;11.13;;
70707;SDS011;58277;47.316;18.908;2022-11-20T11:20:33;31.73;;;11.43;;
70707;SDS011;58277;47.316;18.908;2022-11-20T11:22:57;29.73;;;11.25;;
70707;SDS011;58277;47.316;18.908;2022-11-20T11:25:36;30.35;;;12.00;;
70707;SDS011;58277;47.316;18.908;2022-11-20T11:28:01;30.70;;;11.55;;
70707;SDS011;58277;47.316;18.908;2022-11-20T11:30:42;31.80;;;12.60;;
70707;SDS011;58277;47.316;18.908;2022-11-20T11:33:08;32.13;;;11.70;;
70707;SDS011;58277;47.316;18.908;2022-11-20T11:35:32;29.70;;;11.43;;
70707;SDS011;58277;47.316;18.908;2022-11-20T11:38:03;31.25;;;12.48;;
70707;SDS011;58277;47.316;18.908;2022-11-20T11:40:30;30.23;;;11.65;;
70707;SDS011;58277;47.316;18.908;2022-11-20T11:42:59;35.60;;;12.77;;
70707;SDS011;58277;47.316;18.908;2022-11-20T11:45:24;34.65;;;12.90;;
70707;SDS011;58277;47.316;18.908;2022-11-20T11:47:47;36.20;;;13.65;;
70707;SDS011;58277;47.316;18.908;2022-11-20T11:53:21;35.88;;;13.38;;
70707;SDS011;58277;47.316;18.908;2022-11-20T11:55:45;35.93;;;13.37;;
70707;SDS011;58277;47.316;18.908;2022-11-20T11:58:50;34.38;;;13.30;;
70707;SDS011;58277;47.316;18.908;2022-11-20T12:07:00;33.13;;;12.98;;
70707;SDS011;58277;47.316;18.908;2022-11-20T12:09:49;34.07;;;11.93;;
70707;SDS011;58277;47.316;18.908;2022-11-20T12:12:17;31.48;;;12.07;;
70707;SDS011;58277;47.316;18.908;2022-11-20T12:14:47;31.73;;;12.55;;
70707;SDS011;58277;47.316;18.908;2022-11-20T12:17:12;34.65;;;12.57;;
70707;SDS011;58277;47.316;18.908;2022-11-20T12:19:36;34.72;;;13.07;;
70707;SDS011;58277;47.316;18.908;2022-11-20T12:22:04;39.03;;;14.73;;
70707;SDS011;58277;47.316;18.908;2022-11-20T12:31:07;35.15;;;13.20;;
70707;SDS011;58277;47.316;18.908;2022-11-20T12:33:27;38.05;;;13.90;;
70707;SDS011;58277;47.316;18.908;2022-11-20T12:48:03;37.05;;;13.38;;
70707;SDS011;58277;47.316;18.908;2022-11-20T12:53:48;32.10;;;12.23;;
70707;SDS011;58277;47.316;18.908;2022-11-20T13:02:14;39.17;;;13.82;;
70707;SDS011;58277;47.316;18.908;2022-11-20T13:07:37;37.38;;;13.65;;
70707;SDS011;58277;47.316;18.908;2022-11-20T13:10:01;34.78;;;12.98;;
70707;SDS011;58277;47.316;18.908;2022-11-20T13:17:37;34.65;;;13.05;;
70707;SDS011;58277;47.316;18.908;2022-11-20T13:20:06;34.40;;;13.68;;
70707;SDS011;58277;47.316;18.908;2022-11-20T13:25:10;33.28;;;13.40;;
70707;SDS011;58277;47.316;18.908;2022-11-20T13:27:54;36.50;;;14.23;;
70707;SDS011;58277;47.316;18.908;2022-11-20T13:30:22;39.30;;;14.97;;
70707;SDS011;58277;47.316;18.908;2022-11-20T13:32:47;37.83;;;13.75;;
70707;SDS011;58277;47.316;18.908;2022-11-20T13:35:23;41.95;;;15.75;;
70707;SDS011;58277;47.316;18.908;2022-11-20T13:40:39;40.45;;;14.57;;
70707;SDS011;58277;47.316;18.908;2022-11-20T13:46:02;37.70;;;14.15;;
70707;SDS011;58277;47.316;18.908;2022-11-20T13:48:48;37.60;;;14.98;;
70707;SDS011;58277;47.316;18.908;2022-11-20T13:54:11;42.03;;;15.20;;
70707;SDS011;58277;47.316;18.908;2022-11-20T14:02:08;39.42;;;15.75;;
70707;SDS011;58277;47.316;18.908;2022-11-20T14:04:35;40.53;;;15.85;;
70707;SDS011;58277;47.316;18.908;2022-11-20T14:07:07;42.72;;;15.63;;
70707;SDS011;58277;47.316;18.908;2022-11-20T14:09:32;40.93;;;16.27;;
70707;SDS011;58277;47.316;18.908;2022-11-20T14:11:56;42.40;;;15.57;;
70707;SDS011;58277;47.316;18.908;2022-11-20T14:14:20;41.92;;;15.57;;
70707;SDS011;58277;47.316;18.908;2022-11-20T14:16:46;41.67;;;15.48;;
70707;SDS011;58277;47.316;18.908;2022-11-20T14:21:53;40.90;;;15.23;;
70707;SDS011;58277;47.316;18.908;2022-11-20T14:24:21;41.63;;;15.60;;
70707;SDS011;58277;47.316;18.908;2022-11-20T14:26:46;45.25;;;15.85;;
70707;SDS011;58277;47.316;18.908;2022-11-20T14:29:27;45.17;;;15.80;;
70707;SDS011;58277;47.316;18.908;2022-11-20T14:31:53;43.05;;;16.00;;
70707;SDS011;58277;47.316;18.908;2022-11-20T14:34:21;39.00;;;14.53;;
70707;SDS011;58277;47.316;18.908;2022-11-20T14:36:47;41.70;;;14.75;;
70707;SDS011;58277;47.316;18.908;2022-11-20T14:39:11;42.72;;;15.60;;
70707;SDS011;58277;47.316;18.908;2022-11-20T14:41:49;44.30;;;16.42;;
70707;SDS011;58277;47.316;18.908;2022-11-20T14:44:13;46.05;;;16.33;;
70707;SDS011;58277;47.316;18.908;2022-11-20T14:46:37;48.07;;;16.27;;
70707;SDS011;58277;47.316;18.908;2022-11-20T14:49:00;44.83;;;16.17;;
70707;SDS011;58277;47.316;18.908;2022-11-20T14:51:28;50.97;;;17.60;;
70707;SDS011;58277;47.316;18.908;2022-11-20T14:56:38;51.72;;;18.17;;
70707;SDS011;58277;47.316;18.908;2022-11-20T14:59:01;55.97;;;19.27;;
70707;SDS011;58277;47.316;18.908;2022-11-20T15:01:25;49.35;;;18.13;;
70707;SDS011;58277;47.316;18.908;2022-11-20T15:03:56;46.33;;;17.10;;
70707;SDS011;58277;47.316;18.908;2022-11-20T15:06:25;43.38;;;16.13;;
70707;SDS011;58277;47.316;18.908;2022-11-20T15:08:52;41.92;;;15.77;;
70707;SDS011;58277;47.316;18.908;2022-11-20T15:11:16;42.27;;;15.27;;
70707;SDS011;58277;47.316;18.908;2022-11-20T15:13:41;40.65;;;15.35;;
70707;SDS011;58277;47.316;18.908;2022-11-20T15:16:15;42.97;;;15.65;;
70707;SDS011;58277;47.316;18.908;2022-11-20T15:18:41;44.08;;;15.60;;
70707;SDS011;58277;47.316;18.908;2022-11-20T15:21:09;42.70;;;16.00;;
70707;SDS011;58277;47.316;18.908;2022-11-20T15:23:34;47.97;;;17.37;;
70707;SDS011;58277;47.316;18.908;2022-11-20T15:25:56;53.20;;;18.25;;
70707;SDS011;58277;47.316;18.908;2022-11-20T15:28:31;48.90;;;17.63;;
70707;SDS011;58277;47.316;18.908;2022-11-20T15:30:56;48.15;;;16.73;;
70707;SDS011;58277;47.316;18.908;2022-11-20T15:33:19;46.78;;;17.05;;
70707;SDS011;58277;47.316;18.908;2022-11-20T15:35:42;47.03;;;16.93;;
70707;SDS011;58277;47.316;18.908;2022-11-20T15:38:06;44.78;;;16.30;;
70707;SDS011;58277;47.316;18.908;2022-11-20T15:40:29;42.20;;;15.65;;
70707;SDS011;58277;47.316;18.908;2022-11-20T15:42:51;42.30;;;15.48;;
70707;SDS011;58277;47.316;18.908;2022-11-20T15:45:44;43.15;;;15.55;;
70707;SDS011;58277;47.316;18.908;2022-11-20T15:48:10;41.27;;;15.20;;
70707;SDS011;58277;47.316;18.908;2022-11-20T15:50:37;44.45;;;15.38;;
70707;SDS011;58277;47.316;18.908;2022-11-20T15:53:03;45.35;;;16.52;;
70707;SDS011;58277;47.316;18.908;2022-11-20T15:55:26;44.40;;;15.13;;